createdAt,value
2024-04-21T00:00:23.222Z,86.02
2024-04-21T00:02:52.806Z,85.48
2024-04-21T00:05:19.648Z,86.02
2024-04-21T00:07:49.246Z,86.07
2024-04-21T00:10:16.451Z,86.65
2024-04-21T00:12:48.732Z,87.48
2024-04-21T00:15:15.724Z,87.20
2024-04-21T00:17:45.397Z,87.58
2024-04-21T00:20:12.722Z,87.92
2024-04-21T00:22:42.274Z,88.02
2024-04-21T00:25:09.156Z,88.64
2024-04-21T00:27:38.779Z,88.62
2024-04-21T00:30:12.211Z,88.42
2024-04-21T00:32:41.851Z,88.37
2024-04-21T00:35:08.753Z,88.24
2024-04-21T00:37:38.290Z,87.92
2024-04-21T00:40:05.957Z,88.38
2024-04-21T00:42:35.393Z,87.63
2024-04-21T00:45:02.306Z,87.59
2024-04-21T00:47:34.509Z,88.10
2024-04-21T00:50:01.404Z,88.46
2024-04-21T00:52:31.442Z,88.28
2024-04-21T00:54:58.859Z,88.78
2024-04-21T00:57:28.487Z,88.15
2024-04-21T00:59:55.341Z,88.37
2024-04-21T01:02:24.797Z,88.88
2024-04-21T01:04:54.299Z,88.72
2024-04-21T01:07:23.842Z,88.91
2024-04-21T01:09:50.840Z,89.32
2024-04-21T01:12:20.270Z,89.45
2024-04-21T01:14:47.243Z,89.59
2024-04-21T01:17:16.767Z,89.50
2024-04-21T01:19:43.847Z,89.35
2024-04-21T01:22:15.996Z,89.09
2024-04-21T01:24:45.670Z,88.97
2024-04-21T01:27:15.151Z,88.82
2024-04-21T01:29:42.221Z,88.29
2024-04-21T01:32:20.980Z,87.64
2024-04-21T01:34:48.579Z,87.33
2024-04-21T01:37:19.530Z,87.21
2024-04-21T01:39:49.057Z,86.81
2024-04-21T01:42:18.782Z,86.05
2024-04-21T01:44:45.692Z,85.92
2024-04-21T01:47:15.281Z,86.14
2024-04-21T01:49:42.215Z,86.08
2024-04-21T01:52:11.897Z,86.21
2024-04-21T01:54:38.762Z,86.44
2024-04-21T01:57:10.940Z,86.50
2024-04-21T01:59:37.758Z,86.50
2024-04-21T02:02:07.795Z,86.77
2024-04-21T02:04:37.466Z,87.08
2024-04-21T02:07:06.692Z,87.01
2024-04-21T02:09:36.529Z,86.47
2024-04-21T02:12:03.989Z,86.35
2024-04-21T02:14:36.559Z,85.98
2024-04-21T02:17:03.707Z,85.99
2024-04-21T02:19:33.330Z,85.68
2024-04-21T02:22:00.545Z,85.28
2024-04-21T02:24:30.095Z,84.78
2024-04-21T02:26:57.343Z,84.60
2024-04-21T02:29:26.790Z,84.11
2024-04-21T02:31:56.397Z,83.99
2024-04-21T02:34:25.859Z,83.94
2024-04-21T02:36:53.021Z,83.86
2024-04-21T02:39:22.476Z,83.47
2024-04-21T02:41:49.450Z,83.15
2024-04-21T02:44:18.985Z,83.35
2024-04-21T02:46:47.360Z,83.61
2024-04-21T02:49:19.904Z,83.91
2024-04-21T02:51:47.134Z,83.72
2024-04-21T02:54:16.689Z,83.81
2024-04-21T02:56:43.662Z,83.64
2024-04-21T02:59:13.113Z,83.61
2024-04-21T03:01:40.167Z,83.44
2024-04-21T03:04:09.904Z,83.60
2024-04-21T03:06:39.430Z,83.49
2024-04-21T03:09:09.026Z,83.55
2024-04-21T03:11:36.011Z,84.03
2024-04-21T03:14:05.700Z,84.36
2024-04-21T03:16:33.340Z,84.79
2024-04-21T03:19:05.152Z,84.54
2024-04-21T03:21:32.034Z,84.20
2024-04-21T03:24:04.208Z,84.50
2024-04-21T03:26:31.084Z,84.61
2024-04-21T03:29:00.754Z,84.37
2024-04-21T03:31:27.619Z,84.81
2024-04-21T03:33:57.316Z,84.56
2024-04-21T03:36:24.162Z,84.31
2024-04-21T03:38:53.852Z,84.54
2024-04-21T03:41:26.008Z,84.68
2024-04-21T03:43:55.692Z,84.91
2024-04-21T03:46:25.386Z,84.99
2024-04-21T03:48:52.541Z,84.89
2024-04-21T03:51:22.024Z,85.18
2024-04-21T03:53:48.907Z,85.05
2024-04-21T03:56:19.112Z,84.88
2024-04-21T03:58:48.560Z,85.03
2024-04-21T04:01:18.328Z,85.38
2024-04-21T04:03:45.514Z,85.66
2024-04-21T04:06:15.127Z,85.61
2024-04-21T04:08:41.979Z,85.44
2024-04-21T04:11:11.474Z,85.26
2024-04-21T04:13:38.315Z,84.96
2024-04-21T04:16:10.556Z,84.68
2024-04-21T04:18:37.428Z,84.39
2024-04-21T04:21:07.325Z,84.50
2024-04-21T04:23:34.163Z,84.16
2024-04-21T04:26:03.752Z,84.13
2024-04-21T04:28:30.618Z,84.29
2024-04-21T04:31:00.237Z,84.38
2024-04-21T04:33:29.747Z,84.19
2024-04-21T04:35:59.725Z,84.80
2024-04-21T04:38:26.603Z,84.49
2024-04-21T04:40:56.208Z,84.58
2024-04-21T04:43:23.154Z,84.56
2024-04-21T04:45:53.871Z,83.93
2024-04-21T04:48:20.781Z,83.94
2024-04-21T04:50:53.056Z,83.96
2024-04-21T04:53:19.910Z,84.31
2024-04-21T04:55:50.225Z,84.75
2024-04-21T04:58:17.080Z,84.62
2024-04-21T05:00:47.624Z,84.82
2024-04-21T05:03:14.748Z,85.03
2024-04-21T05:05:44.351Z,85.22
2024-04-21T05:08:13.846Z,84.68
2024-04-21T05:10:43.786Z,83.96
2024-04-21T05:13:10.686Z,84.09
2024-04-21T05:15:40.111Z,83.90
2024-04-21T05:18:07.262Z,84.53
2024-04-21T05:20:36.811Z,84.38
2024-04-21T05:23:04.456Z,84.62
2024-04-21T05:25:36.573Z,84.46
2024-04-21T05:28:04.007Z,83.78
2024-04-21T05:30:33.530Z,84.35
2024-04-21T05:33:00.490Z,84.68
2024-04-21T05:35:29.986Z,83.58
2024-04-21T05:37:56.991Z,83.91
2024-04-21T05:40:26.664Z,84.14
2024-04-21T05:42:56.484Z,83.88
2024-04-21T05:45:26.098Z,83.76
2024-04-21T05:47:53.075Z,83.91
2024-04-21T05:50:22.688Z,83.83
2024-04-21T05:52:49.565Z,83.78
2024-04-21T05:55:19.102Z,83.95
2024-04-21T05:57:46.098Z,84.20
2024-04-21T06:00:18.986Z,83.63
2024-04-21T06:02:45.875Z,82.50
2024-04-21T06:05:15.467Z,81.73
2024-04-21T06:07:42.434Z,82.16
2024-04-21T06:10:11.992Z,82.82
2024-04-21T06:12:38.864Z,82.84
2024-04-21T06:15:09.127Z,82.05
2024-04-21T06:17:38.639Z,82.23
2024-04-21T06:20:09.700Z,82.43
2024-04-21T06:22:36.545Z,82.66
2024-04-21T06:25:06.092Z,81.88
2024-04-21T06:27:34.574Z,81.62
2024-04-21T06:30:04.559Z,80.31
2024-04-21T06:32:31.481Z,80.31
2024-04-21T06:35:04.644Z,82.03
2024-04-21T06:37:32.096Z,83.01
2024-04-21T06:40:01.742Z,83.08
2024-04-21T06:42:28.623Z,81.95
2024-04-21T06:44:58.174Z,83.01
2024-04-21T06:47:27.919Z,83.60
2024-04-21T06:49:57.999Z,82.69
2024-04-21T06:52:27.671Z,82.55
2024-04-21T06:54:57.208Z,82.85
2024-04-21T06:57:24.124Z,82.81
2024-04-21T06:59:53.570Z,82.88
2024-04-21T07:02:20.800Z,84.13
2024-04-21T07:04:50.365Z,83.74
2024-04-21T07:07:18.917Z,83.43
2024-04-21T07:09:51.199Z,83.27
2024-04-21T07:12:18.215Z,82.84
2024-04-21T07:14:47.627Z,82.56
2024-04-21T07:17:14.565Z,82.35
2024-04-21T07:19:44.047Z,82.32
2024-04-21T07:22:10.959Z,82.71
2024-04-21T07:24:40.413Z,81.53
2024-04-21T07:27:10.017Z,82.24
2024-04-21T07:29:41.764Z,82.33
2024-04-21T07:32:09.012Z,80.17
2024-04-21T07:34:38.481Z,81.14
2024-04-21T07:37:05.519Z,79.83
2024-04-21T07:39:35.056Z,80.12
2024-04-21T07:42:01.916Z,79.45
2024-04-21T07:44:34.189Z,78.51
2024-04-21T07:47:01.079Z,79.08
2024-04-21T07:49:30.771Z,79.68
2024-04-21T07:51:57.725Z,80.18
2024-04-21T07:54:27.597Z,81.72
2024-04-21T07:56:54.456Z,81.24
2024-04-21T07:59:24.006Z,79.33
2024-04-21T08:01:53.572Z,80.66
2024-04-21T08:04:23.380Z,80.17
2024-04-21T08:06:50.824Z,80.53
2024-04-21T08:09:29.611Z,80.83
2024-04-21T08:11:58.161Z,83.73
2024-04-21T08:14:27.961Z,84.94
2024-04-21T08:16:57.598Z,85.36
2024-04-21T08:19:27.687Z,85.56
2024-04-21T08:21:54.592Z,85.02
2024-04-21T08:24:24.416Z,86.48
2024-04-21T08:26:55.245Z,85.15
2024-04-21T08:29:25.592Z,86.01
2024-04-21T08:31:52.662Z,84.68
2024-04-21T08:34:24.900Z,82.77
2024-04-21T08:36:51.875Z,81.04
2024-04-21T08:39:21.816Z,82.43
2024-04-21T08:41:48.797Z,81.28
2024-04-21T08:44:19.065Z,80.57
2024-04-21T08:46:46.819Z,80.37
2024-04-21T08:49:19.479Z,80.40
2024-04-21T08:51:51.296Z,80.08
2024-04-21T08:54:20.772Z,80.42
2024-04-21T08:56:52.560Z,78.75
2024-04-21T08:59:26.559Z,78.38
2024-04-21T09:01:53.944Z,79.93
2024-04-21T09:04:24.515Z,79.25
2024-04-21T09:06:55.782Z,78.97
2024-04-21T09:09:25.530Z,77.98
2024-04-21T09:11:52.768Z,79.11
2024-04-21T09:14:25.483Z,78.19
2024-04-21T09:16:52.590Z,79.58
2024-04-21T09:19:22.227Z,80.22
2024-04-21T09:21:49.222Z,82.33
2024-04-21T09:24:21.769Z,82.38
2024-04-21T09:26:48.922Z,83.66
2024-04-21T09:29:18.818Z,84.80
2024-04-21T09:31:45.800Z,86.15
2024-04-21T09:34:15.942Z,85.40
2024-04-21T09:36:43.072Z,83.95
2024-04-21T09:39:13.049Z,82.38
2024-04-21T09:41:48.779Z,83.00
2024-04-21T09:44:19.205Z,83.04
2024-04-21T09:46:47.829Z,82.47
2024-04-21T09:49:19.564Z,82.39
2024-04-21T09:51:47.860Z,80.78
2024-04-21T09:54:21.000Z,82.73
2024-04-21T09:56:58.115Z,82.38
2024-04-21T09:59:31.154Z,80.23
2024-04-21T10:02:01.108Z,77.10
2024-04-21T10:04:33.302Z,78.88
2024-04-21T10:07:00.394Z,78.53
2024-04-21T10:09:30.791Z,78.30
2024-04-21T10:12:00.774Z,78.39
2024-04-21T10:14:30.516Z,76.74
2024-04-21T10:16:57.802Z,77.20
2024-04-21T10:19:28.730Z,78.35
2024-04-21T10:21:55.846Z,79.21
2024-04-21T10:24:26.796Z,78.64
2024-04-21T10:27:03.253Z,79.39
2024-04-21T10:29:33.345Z,80.34
2024-04-21T10:32:14.831Z,78.49
2024-04-21T10:34:47.879Z,78.97
2024-04-21T10:37:15.959Z,79.23
2024-04-21T10:39:45.428Z,79.07
2024-04-21T10:42:16.401Z,79.20
2024-04-21T10:44:46.170Z,81.25
2024-04-21T10:47:13.089Z,80.35
2024-04-21T10:49:42.691Z,81.18
2024-04-21T10:52:10.206Z,82.06
2024-04-21T10:54:39.956Z,81.85
2024-04-21T10:57:07.168Z,82.96
2024-04-21T10:59:39.258Z,82.32
2024-04-21T11:02:06.160Z,82.41
2024-04-21T11:04:37.379Z,80.11
2024-04-21T11:07:05.333Z,80.22
2024-04-21T11:09:35.004Z,78.17
2024-04-21T11:12:03.226Z,79.74
2024-04-21T11:14:32.675Z,80.43
2024-04-21T11:17:03.032Z,79.61
2024-04-21T11:19:34.441Z,78.69
2024-04-21T11:22:01.770Z,79.23
2024-04-21T11:24:31.871Z,79.66
2024-04-21T11:26:59.813Z,76.04
2024-04-21T11:29:29.517Z,76.83
2024-04-21T11:31:56.372Z,76.51
2024-04-21T11:34:29.059Z,74.45
2024-04-21T11:36:57.459Z,76.57
2024-04-21T11:39:27.063Z,74.36
2024-04-21T11:41:54.817Z,72.50
2024-04-21T11:44:24.252Z,72.78
2024-04-21T11:46:52.847Z,73.93
2024-04-21T11:49:22.441Z,73.46
2024-04-21T11:51:52.019Z,72.65
2024-04-21T11:54:21.572Z,72.27
2024-04-21T11:56:48.463Z,72.79
2024-04-21T11:59:18.093Z,71.63
2024-04-21T12:01:50.069Z,72.82
2024-04-21T12:04:21.775Z,74.77
2024-04-21T12:06:51.961Z,74.22
2024-04-21T12:09:21.953Z,71.84
2024-04-21T12:11:48.959Z,73.53
2024-04-21T12:14:30.161Z,71.33
2024-04-21T12:16:57.197Z,74.91
2024-04-21T12:19:26.886Z,75.28
2024-04-21T12:21:59.265Z,72.80
2024-04-21T12:24:26.178Z,70.22
2024-04-21T12:26:55.697Z,68.09
2024-04-21T12:29:22.788Z,63.83
2024-04-21T12:31:52.393Z,65.23
2024-04-21T12:34:19.690Z,66.13
2024-04-21T12:36:49.174Z,67.97
2024-04-21T12:39:21.424Z,67.38
2024-04-21T12:41:48.250Z,69.20
2024-04-21T12:44:17.879Z,70.71
2024-04-21T12:46:45.161Z,75.15
2024-04-21T12:49:14.967Z,74.82
2024-04-21T12:51:42.034Z,74.83
2024-04-21T12:54:11.477Z,75.43
2024-04-21T12:56:40.932Z,74.58
2024-04-21T12:59:11.562Z,73.65
2024-04-21T13:01:38.544Z,73.15
2024-04-21T13:04:09.485Z,72.99
2024-04-21T13:06:36.496Z,73.40
2024-04-21T13:09:06.245Z,70.89
2024-04-21T13:11:33.118Z,72.74
2024-04-21T13:14:05.352Z,71.73
2024-04-21T13:16:32.738Z,73.00
2024-04-21T13:19:08.772Z,68.64
2024-04-21T13:21:35.710Z,65.68
2024-04-21T13:24:05.158Z,65.29
2024-04-21T13:26:32.212Z,67.57
2024-04-21T13:29:01.631Z,64.58
2024-04-21T13:31:31.513Z,66.59
2024-04-21T13:34:00.993Z,65.49
2024-04-21T13:36:35.018Z,67.65
2024-04-21T13:39:09.278Z,69.23
2024-04-21T13:41:36.460Z,68.72
2024-04-21T13:44:06.266Z,69.83
2024-04-21T13:46:35.877Z,71.38
2024-04-21T13:49:05.389Z,73.11
2024-04-21T13:51:33.481Z,76.98
2024-04-21T13:54:03.567Z,78.03
2024-04-21T13:56:30.770Z,79.45
2024-04-21T13:59:00.214Z,78.40
2024-04-21T14:01:27.631Z,77.41
2024-04-21T14:04:00.276Z,77.75
2024-04-21T14:06:30.832Z,78.67
2024-04-21T14:09:00.839Z,80.72
2024-04-21T14:11:28.021Z,81.31
2024-04-21T14:13:58.982Z,80.28
2024-04-21T14:16:27.376Z,82.13
2024-04-21T14:18:59.933Z,81.64
2024-04-21T14:21:26.923Z,82.15
2024-04-21T14:23:59.020Z,82.62
2024-04-21T14:26:27.522Z,83.10
2024-04-21T14:28:57.291Z,81.41
2024-04-21T14:31:24.202Z,81.93
2024-04-21T14:33:53.765Z,82.11
2024-04-21T14:36:26.412Z,81.62
2024-04-21T14:38:56.715Z,83.19
2024-04-21T14:41:23.620Z,83.23
2024-04-21T14:43:53.561Z,85.13
2024-04-21T14:46:20.436Z,84.26
2024-04-21T14:48:49.882Z,82.59
2024-04-21T14:51:16.765Z,83.67
2024-04-21T14:53:49.973Z,84.75
2024-04-21T14:56:21.457Z,84.33
2024-04-21T14:58:50.972Z,80.71
2024-04-21T15:01:18.100Z,79.70
2024-04-21T15:03:49.455Z,79.89
2024-04-21T15:06:19.188Z,78.03
2024-04-21T15:08:52.381Z,76.37
2024-04-21T15:11:19.313Z,75.37
2024-04-21T15:13:48.799Z,74.35
2024-04-21T15:16:15.949Z,74.35
2024-04-21T15:18:45.508Z,73.26
2024-04-21T15:21:12.526Z,73.92
2024-04-21T15:23:41.973Z,73.50
2024-04-21T15:26:11.520Z,74.73
2024-04-21T15:28:41.016Z,74.42
2024-04-21T15:31:08.103Z,74.48
2024-04-21T15:33:37.734Z,74.61
2024-04-21T15:36:05.641Z,74.01
2024-04-21T15:38:35.250Z,73.22
2024-04-21T15:41:02.338Z,72.76
2024-04-21T15:43:34.466Z,72.71
2024-04-21T15:46:01.440Z,73.39
2024-04-21T15:48:32.371Z,72.75
2024-04-21T15:50:59.370Z,72.99
2024-04-21T15:53:28.940Z,73.48
2024-04-21T15:55:56.254Z,72.15
2024-04-21T15:58:26.511Z,72.84
2024-04-21T16:00:56.022Z,72.83
2024-04-21T16:03:25.633Z,72.09
2024-04-21T16:05:52.492Z,73.60
2024-04-21T16:08:22.136Z,73.56
2024-04-21T16:10:49.159Z,73.03
2024-04-21T16:13:18.821Z,71.98
2024-04-21T16:15:45.871Z,72.19
2024-04-21T16:18:17.945Z,72.31
2024-04-21T16:20:44.878Z,72.90
2024-04-21T16:23:14.852Z,72.50
2024-04-21T16:25:42.471Z,72.94
2024-04-21T16:28:12.685Z,72.92
2024-04-21T16:30:40.060Z,73.39
2024-04-21T16:33:10.086Z,73.07
2024-04-21T16:35:40.508Z,70.70
2024-04-21T16:38:11.403Z,70.55
2024-04-21T16:40:39.202Z,69.43
2024-04-21T16:43:10.008Z,68.32
2024-04-21T16:45:38.387Z,69.06
2024-04-21T16:48:09.458Z,69.41
2024-04-21T16:50:39.763Z,70.57
2024-04-21T16:53:09.958Z,71.39
2024-04-21T16:55:37.533Z,70.54
2024-04-21T16:58:09.247Z,70.52
2024-04-21T17:00:36.992Z,70.26
2024-04-21T17:03:07.311Z,70.01
2024-04-21T17:05:34.804Z,70.16
2024-04-21T17:08:11.733Z,69.65
2024-04-21T17:10:39.242Z,70.45
2024-04-21T17:13:08.916Z,70.94
2024-04-21T17:15:35.969Z,70.63
2024-04-21T17:18:06.025Z,71.42
2024-04-21T17:20:34.578Z,71.34
2024-04-21T17:23:07.019Z,71.96
2024-04-21T17:25:38.259Z,73.06
2024-04-21T17:28:09.142Z,73.21
2024-04-21T17:30:36.026Z,73.38
2024-04-21T17:33:05.841Z,73.51
2024-04-21T17:35:32.965Z,73.49
2024-04-21T17:38:02.570Z,73.77
2024-04-21T17:40:29.444Z,73.85
2024-04-21T17:43:01.689Z,74.54
2024-04-21T17:45:31.250Z,75.18
2024-04-21T17:48:01.357Z,75.70
2024-04-21T17:50:28.251Z,74.64
2024-04-21T17:52:58.173Z,74.71
2024-04-21T17:55:25.089Z,75.14
2024-04-21T17:57:54.691Z,75.68
2024-04-21T18:00:24.151Z,75.57
2024-04-21T18:02:53.653Z,75.72
2024-04-21T18:05:20.644Z,75.67
2024-04-21T18:07:55.844Z,76.01
2024-04-21T18:10:23.277Z,76.21
2024-04-21T18:12:52.758Z,76.75
2024-04-21T18:15:19.858Z,77.12
2024-04-21T18:17:52.079Z,77.09
2024-04-21T18:20:19.153Z,77.27
2024-04-21T18:22:48.844Z,77.33
2024-04-21T18:25:17.610Z,77.63
2024-04-21T18:27:47.119Z,78.53
2024-04-21T18:30:14.093Z,78.54
2024-04-21T18:32:43.591Z,78.85
2024-04-21T18:35:13.372Z,79.35
2024-04-21T18:37:43.050Z,78.91
2024-04-21T18:40:12.699Z,79.39
2024-04-21T18:42:39.738Z,79.38
2024-04-21T18:45:12.814Z,80.00
2024-04-21T18:47:39.705Z,80.28
2024-04-21T18:50:09.781Z,80.58
2024-04-21T18:52:39.235Z,81.47
2024-04-21T18:55:08.850Z,81.51
2024-04-21T18:57:37.178Z,83.53
2024-04-21T19:00:07.389Z,83.56
2024-04-21T19:02:35.859Z,83.55
2024-04-21T19:05:05.551Z,83.48
2024-04-21T19:07:32.487Z,83.34
2024-04-21T19:10:08.286Z,82.38
2024-04-21T19:12:36.077Z,82.24
2024-04-21T19:15:06.251Z,81.76
2024-04-21T19:17:33.934Z,81.44
2024-04-21T19:20:05.743Z,81.12
2024-04-21T19:22:33.290Z,80.95
2024-04-21T19:25:05.385Z,81.17
2024-04-21T19:27:32.367Z,80.69
2024-04-21T19:30:02.564Z,81.29
2024-04-21T19:32:29.658Z,81.13
2024-04-21T19:34:59.174Z,81.12
2024-04-21T19:37:26.064Z,82.68
2024-04-21T19:39:55.765Z,82.86
2024-04-21T19:42:27.970Z,82.63
2024-04-21T19:44:54.805Z,82.96
2024-04-21T19:47:24.492Z,82.50
2024-04-21T19:49:53.786Z,83.00
2024-04-21T19:52:23.546Z,83.98
2024-04-21T19:54:53.109Z,84.77
2024-04-21T19:57:22.731Z,84.95
2024-04-21T19:59:52.298Z,84.71
2024-04-21T20:02:22.070Z,84.30
2024-04-21T20:04:49.040Z,84.35
2024-04-21T20:07:18.705Z,83.80
2024-04-21T20:09:45.785Z,83.77
2024-04-21T20:12:15.261Z,83.97
2024-04-21T20:15:00.628Z,83.72
2024-04-21T20:17:48.610Z,83.79
2024-04-21T20:20:19.197Z,82.61
2024-04-21T20:22:48.651Z,82.84
2024-04-21T20:25:18.215Z,82.91
2024-04-21T20:27:48.997Z,82.90
2024-04-21T20:30:16.008Z,82.99
2024-04-21T20:32:48.568Z,82.71
2024-04-21T20:35:15.457Z,82.82
2024-04-21T20:37:44.939Z,84.07
2024-04-21T20:40:11.796Z,84.39
2024-04-21T20:42:41.255Z,83.93
2024-04-21T20:45:08.446Z,84.37
2024-04-21T20:47:37.955Z,84.03
2024-04-21T20:50:07.963Z,84.17
2024-04-21T20:52:37.448Z,84.03
2024-04-21T20:55:05.961Z,84.29
2024-04-21T20:57:35.684Z,83.76
2024-04-21T21:00:02.556Z,83.71
2024-04-21T21:02:32.264Z,84.25
2024-04-21T21:04:59.195Z,84.38
2024-04-21T21:07:31.372Z,83.97
2024-04-21T21:09:58.218Z,84.48
2024-04-21T21:12:28.222Z,84.71
2024-04-21T21:14:55.072Z,84.32
2024-04-21T21:17:26.253Z,85.07
2024-04-21T21:19:53.146Z,84.87
2024-04-21T21:22:20.151Z,84.68
2024-04-21T21:24:52.222Z,84.59
2024-04-21T21:27:19.340Z,84.73
2024-04-21T21:29:48.778Z,84.41
2024-04-21T21:32:15.756Z,84.55
2024-04-21T21:34:45.259Z,84.42
2024-04-21T21:37:12.371Z,84.39
2024-04-21T21:39:41.877Z,84.58
2024-04-21T21:42:11.740Z,84.52
2024-04-21T21:44:41.285Z,84.37
2024-04-21T21:47:08.296Z,84.13
2024-04-21T21:49:37.844Z,84.04
2024-04-21T21:52:05.324Z,84.31
2024-04-21T21:54:35.979Z,84.23
2024-04-21T21:57:03.438Z,84.46
2024-04-21T21:59:35.688Z,84.24
2024-04-21T22:02:03.536Z,84.00
2024-04-21T22:04:33.969Z,84.20
2024-04-21T22:07:01.102Z,84.06
2024-04-21T22:09:30.559Z,83.55
2024-04-21T22:11:57.623Z,83.57
2024-04-21T22:14:27.313Z,83.25
2024-04-21T22:16:56.924Z,83.14
2024-04-21T22:19:26.601Z,82.29
2024-04-21T22:21:53.548Z,81.86
2024-04-21T22:24:23.118Z,82.30
2024-04-21T22:26:49.942Z,82.35
2024-04-21T22:29:19.506Z,82.51
2024-04-21T22:31:53.574Z,82.30
2024-04-21T22:34:30.308Z,82.29
2024-04-21T22:36:57.241Z,82.26
2024-04-21T22:39:26.836Z,82.47
2024-04-21T22:41:53.655Z,82.32
2024-04-21T22:44:23.213Z,82.22
2024-04-21T22:46:50.070Z,82.33
2024-04-21T22:49:19.684Z,81.85
2024-04-21T22:51:49.715Z,81.78
2024-04-21T22:54:19.388Z,81.75
2024-04-21T22:56:46.316Z,81.95
2024-04-21T22:59:16.021Z,81.85
2024-04-21T23:01:42.944Z,81.80
2024-04-21T23:04:12.538Z,81.79
2024-04-21T23:06:39.403Z,81.75
2024-04-21T23:09:11.836Z,81.81
2024-04-21T23:11:38.830Z,81.96
2024-04-21T23:14:08.528Z,81.75
2024-04-21T23:16:35.374Z,81.81
2024-04-21T23:19:04.994Z,82.11
2024-04-21T23:21:32.016Z,82.35
2024-04-21T23:24:01.495Z,82.13
2024-04-21T23:26:30.983Z,82.29
2024-04-21T23:29:00.420Z,82.25
2024-04-21T23:31:27.880Z,82.14
2024-04-21T23:33:57.575Z,82.14
2024-04-21T23:36:24.536Z,82.42
2024-04-21T23:38:53.975Z,82.09
2024-04-21T23:41:21.311Z,81.85
2024-04-21T23:43:54.436Z,82.01
2024-04-21T23:46:21.591Z,82.03
2024-04-21T23:48:51.079Z,82.05
2024-04-21T23:51:18.166Z,81.87
2024-04-21T23:53:47.594Z,82.20
2024-04-21T23:56:16.435Z,82.23
2024-04-21T23:58:45.854Z,81.97
